createdAt,value
2024-03-11T00:00:26.075Z,2.48
2024-03-11T00:02:52.612Z,2.46
2024-03-11T00:05:19.240Z,2.28
2024-03-11T00:07:45.790Z,2.57
2024-03-11T00:10:12.357Z,2.71
2024-03-11T00:12:39.095Z,2.57
2024-03-11T00:15:05.655Z,2.56
2024-03-11T00:17:32.277Z,2.69
2024-03-11T00:19:58.950Z,2.39
2024-03-11T00:22:25.489Z,2.29
2024-03-11T00:24:52.045Z,2.04
2024-03-11T00:27:18.627Z,2.15
2024-03-11T00:29:45.235Z,2.25
2024-03-11T00:32:11.861Z,2.17
2024-03-11T00:34:38.430Z,2.18
2024-03-11T00:37:05.011Z,2.45
2024-03-11T00:39:31.858Z,2.32
2024-03-11T00:41:58.588Z,2.51
2024-03-11T00:44:25.244Z,2.51
2024-03-11T00:46:51.827Z,2.52
2024-03-11T00:49:18.447Z,2.53
2024-03-11T00:51:45.056Z,2.39
2024-03-11T00:54:11.601Z,2.50
2024-03-11T00:56:38.243Z,2.41
2024-03-11T00:59:04.847Z,2.31
2024-03-11T01:01:31.466Z,2.32
2024-03-11T01:03:58.020Z,2.10
2024-03-11T01:06:24.625Z,2.12
2024-03-11T01:08:51.642Z,2.03
2024-03-11T01:11:18.390Z,2.05
2024-03-11T01:13:44.938Z,2.06
2024-03-11T01:16:11.538Z,2.00
2024-03-11T01:18:38.337Z,1.87
2024-03-11T01:21:04.912Z,1.95
2024-03-11T01:23:31.510Z,1.75
2024-03-11T01:25:58.108Z,1.97
2024-03-11T01:28:24.688Z,1.93
2024-03-11T01:30:51.265Z,1.90
2024-03-11T01:33:17.886Z,1.77
2024-03-11T01:35:44.520Z,1.92
2024-03-11T01:38:11.192Z,1.89
2024-03-11T01:40:37.766Z,1.82
2024-03-11T01:43:04.316Z,1.61
2024-03-11T01:45:30.852Z,1.69
2024-03-11T01:47:57.454Z,1.55
2024-03-11T01:50:24.071Z,1.82
2024-03-11T01:52:50.656Z,1.80
2024-03-11T01:55:17.429Z,1.79
2024-03-11T01:57:44.162Z,1.82
2024-03-11T02:00:10.718Z,1.68
2024-03-11T02:02:37.263Z,1.88
2024-03-11T02:05:03.869Z,1.89
2024-03-11T02:07:30.442Z,2.06
2024-03-11T02:09:57.048Z,1.89
2024-03-11T02:12:23.641Z,1.71
2024-03-11T02:14:50.357Z,2.00
2024-03-11T02:17:17.344Z,2.13
2024-03-11T02:19:43.967Z,2.28
2024-03-11T02:22:10.600Z,2.80
2024-03-11T02:24:37.187Z,2.21
2024-03-11T02:27:03.733Z,2.11
2024-03-11T02:29:30.291Z,2.33
2024-03-11T02:31:56.888Z,2.64
2024-03-11T02:34:23.499Z,2.36
2024-03-11T02:36:50.115Z,2.31
2024-03-11T02:39:16.759Z,2.35
2024-03-11T02:41:43.319Z,2.47
2024-03-11T02:44:09.994Z,2.15
2024-03-11T02:46:36.569Z,2.46
2024-03-11T02:49:03.114Z,2.19
2024-03-11T02:51:29.826Z,2.07
2024-03-11T02:53:56.375Z,2.12
2024-03-11T02:56:22.996Z,2.30
2024-03-11T02:58:49.557Z,2.30
2024-03-11T03:01:16.112Z,2.10
2024-03-11T03:03:42.653Z,2.14
2024-03-11T03:06:09.178Z,2.49
2024-03-11T03:08:35.767Z,2.30
2024-03-11T03:11:02.449Z,2.09
2024-03-11T03:13:29.104Z,2.03
2024-03-11T03:15:55.651Z,2.23
2024-03-11T03:18:22.228Z,2.50
2024-03-11T03:20:49.088Z,2.11
2024-03-11T03:23:15.722Z,2.34
2024-03-11T03:25:42.282Z,2.43
2024-03-11T03:28:08.836Z,2.55
2024-03-11T03:30:35.423Z,2.65
2024-03-11T03:33:02.116Z,2.71
2024-03-11T03:35:28.800Z,2.46
2024-03-11T03:37:55.432Z,2.43
2024-03-11T03:40:21.964Z,2.33
2024-03-11T03:42:48.618Z,2.53
2024-03-11T03:45:15.226Z,2.78
2024-03-11T03:47:41.850Z,2.69
2024-03-11T03:50:08.476Z,2.64
2024-03-11T03:52:35.051Z,2.40
2024-03-11T03:55:01.595Z,2.33
2024-03-11T03:57:28.177Z,2.40
2024-03-11T03:59:54.833Z,2.49
2024-03-11T04:02:21.449Z,2.51
2024-03-11T04:04:48.069Z,2.64
2024-03-11T04:07:14.460Z,2.54
2024-03-11T04:09:40.879Z,2.47
2024-03-11T04:12:07.469Z,2.62
2024-03-11T04:14:34.096Z,2.54
2024-03-11T04:17:00.543Z,2.36
2024-03-11T04:19:26.931Z,2.37
2024-03-11T04:21:53.318Z,2.23
2024-03-11T04:24:19.842Z,2.04
2024-03-11T04:26:46.858Z,2.35
2024-03-11T04:29:13.373Z,2.24
2024-03-11T04:31:39.794Z,2.18
2024-03-11T04:34:06.183Z,2.21
2024-03-11T04:36:32.584Z,2.10
2024-03-11T04:38:59.226Z,2.22
2024-03-11T04:41:25.764Z,2.27
2024-03-11T04:43:52.177Z,2.19
2024-03-11T04:46:18.625Z,2.19
2024-03-11T04:48:45.033Z,2.17
2024-03-11T04:51:11.482Z,2.23
2024-03-11T04:53:37.934Z,2.23
2024-03-11T04:56:04.353Z,2.28
2024-03-11T04:58:30.761Z,2.18
2024-03-11T05:00:57.220Z,2.04
2024-03-11T05:03:23.678Z,1.86
2024-03-11T05:05:50.374Z,1.80
2024-03-11T05:08:17.029Z,2.20
2024-03-11T05:10:43.635Z,2.37
2024-03-11T05:13:10.199Z,2.41
2024-03-11T05:15:36.760Z,2.32
2024-03-11T05:18:03.617Z,2.68
2024-03-11T05:20:30.426Z,2.35
2024-03-11T05:22:57.051Z,2.55
2024-03-11T05:25:23.604Z,2.48
2024-03-11T05:27:50.132Z,2.68
2024-03-11T05:30:17.254Z,2.82
2024-03-11T05:32:44.006Z,3.15
2024-03-11T05:35:10.656Z,2.95
2024-03-11T05:37:37.301Z,3.04
2024-03-11T05:40:03.860Z,2.88
2024-03-11T05:42:30.416Z,2.80
2024-03-11T05:44:57.186Z,2.35
2024-03-11T05:47:23.912Z,2.79
2024-03-11T05:49:50.483Z,2.72
2024-03-11T05:52:16.999Z,2.72
2024-03-11T05:54:43.538Z,2.45
2024-03-11T05:57:10.074Z,2.32
2024-03-11T05:59:36.631Z,2.60
2024-03-11T06:02:03.183Z,2.37
2024-03-11T06:04:29.699Z,2.30
2024-03-11T06:06:56.295Z,2.29
2024-03-11T06:09:22.834Z,2.10
2024-03-11T06:11:49.492Z,3.13
2024-03-11T06:14:16.123Z,3.73
2024-03-11T06:16:42.682Z,3.08
2024-03-11T06:19:09.229Z,3.35
2024-03-11T06:21:35.773Z,3.48
2024-03-11T06:24:02.314Z,3.66
2024-03-11T06:26:28.920Z,3.65
2024-03-11T06:28:55.464Z,3.83
2024-03-11T06:31:22.050Z,4.03
2024-03-11T06:33:48.690Z,4.32
2024-03-11T06:36:16.332Z,4.27
2024-03-11T06:38:42.992Z,4.50
2024-03-11T06:41:09.637Z,4.12
2024-03-11T06:43:36.287Z,3.97
2024-03-11T06:46:03.242Z,3.62
2024-03-11T06:48:29.867Z,2.80
2024-03-11T06:50:56.500Z,2.25
2024-03-11T06:53:23.043Z,2.53
2024-03-11T06:55:49.679Z,2.25
2024-03-11T06:58:16.237Z,2.27
2024-03-11T07:00:42.794Z,2.17
2024-03-11T07:03:09.399Z,2.36
2024-03-11T07:05:37.106Z,2.34
2024-03-11T07:08:03.922Z,2.31
2024-03-11T07:10:30.478Z,2.23
2024-03-11T07:12:57.004Z,1.90
2024-03-11T07:15:23.563Z,1.40
2024-03-11T07:17:50.112Z,1.38
2024-03-11T07:20:16.631Z,1.42
2024-03-11T07:22:43.176Z,1.39
2024-03-11T07:25:09.749Z,1.36
2024-03-11T07:27:36.370Z,1.60
2024-03-11T07:30:02.914Z,2.08
2024-03-11T07:32:29.446Z,2.46
2024-03-11T07:34:55.988Z,2.31
2024-03-11T07:37:22.541Z,2.51
2024-03-11T07:39:49.121Z,2.91
2024-03-11T07:42:15.653Z,2.85
2024-03-11T07:44:42.233Z,3.23
2024-03-11T07:47:08.799Z,2.99
2024-03-11T07:49:35.333Z,3.22
2024-03-11T07:52:02.005Z,3.10
2024-03-11T07:54:28.614Z,2.90
2024-03-11T07:56:55.194Z,3.04
2024-03-11T07:59:21.750Z,3.24
2024-03-11T08:01:48.314Z,3.32
2024-03-11T08:04:14.876Z,3.43
2024-03-11T08:06:41.493Z,3.28
2024-03-11T08:09:08.056Z,3.03
2024-03-11T08:11:34.698Z,3.08
2024-03-11T08:14:01.285Z,3.25
2024-03-11T08:16:27.894Z,3.14
2024-03-11T08:18:54.472Z,3.28
2024-03-11T08:21:21.024Z,3.36
2024-03-11T08:23:47.561Z,3.17
2024-03-11T08:26:14.096Z,3.18
2024-03-11T08:28:40.626Z,3.21
2024-03-11T08:31:07.215Z,3.10
2024-03-11T08:33:33.744Z,2.95
2024-03-11T08:36:01.417Z,2.94
2024-03-11T08:38:28.022Z,2.67
2024-03-11T08:40:54.646Z,3.00
2024-03-11T08:43:21.185Z,2.85
2024-03-11T08:45:47.933Z,2.94
2024-03-11T08:48:14.501Z,2.93
2024-03-11T08:50:41.052Z,2.81
2024-03-11T08:53:07.599Z,3.06
2024-03-11T08:55:34.158Z,2.77
2024-03-11T08:58:00.710Z,3.04
2024-03-11T09:00:27.263Z,2.85
2024-03-11T09:02:53.809Z,2.76
2024-03-11T09:05:20.912Z,2.31
2024-03-11T09:07:47.912Z,2.33
2024-03-11T09:10:14.534Z,2.41
2024-03-11T09:12:41.141Z,2.59
2024-03-11T09:15:07.715Z,2.21
2024-03-11T09:17:34.282Z,2.49
2024-03-11T09:20:00.841Z,2.38
2024-03-11T09:22:27.378Z,2.45
2024-03-11T09:24:53.985Z,2.50
2024-03-11T09:27:20.586Z,2.34
2024-03-11T09:29:47.140Z,2.38
2024-03-11T09:32:13.680Z,2.51
2024-03-11T09:34:40.234Z,2.21
2024-03-11T09:37:06.802Z,2.13
2024-03-11T09:39:33.363Z,1.92
2024-03-11T09:41:59.943Z,2.01
2024-03-11T09:44:26.478Z,1.92
2024-03-11T09:46:53.051Z,1.85
2024-03-11T09:49:19.648Z,1.77
2024-03-11T09:51:46.226Z,1.88
2024-03-11T09:54:12.773Z,1.98
2024-03-11T09:56:39.340Z,1.88
2024-03-11T09:59:05.882Z,1.58
2024-03-11T10:01:32.504Z,1.84
2024-03-11T10:03:59.139Z,2.14
2024-03-11T10:06:25.765Z,2.50
2024-03-11T10:08:52.296Z,2.73
2024-03-11T10:11:18.880Z,3.18
2024-03-11T10:13:45.457Z,3.07
2024-03-11T10:16:12.007Z,2.91
2024-03-11T10:18:38.632Z,2.90
2024-03-11T10:21:05.198Z,3.43
2024-03-11T10:23:31.795Z,3.63
2024-03-11T10:25:58.395Z,3.89
2024-03-11T10:28:24.948Z,3.80
2024-03-11T10:30:51.641Z,3.80
2024-03-11T10:33:18.498Z,3.11
2024-03-11T10:35:45.090Z,3.47
2024-03-11T10:38:11.704Z,3.90
2024-03-11T10:40:38.374Z,3.80
2024-03-11T10:43:05.126Z,3.77
2024-03-11T10:45:31.752Z,3.92
2024-03-11T10:47:58.365Z,3.74
2024-03-11T10:50:24.938Z,3.88
2024-03-11T10:52:51.590Z,4.00
2024-03-11T10:55:18.221Z,3.82
2024-03-11T10:57:45.649Z,4.05
2024-03-11T11:00:12.788Z,3.65
2024-03-11T11:02:39.470Z,3.64
2024-03-11T11:05:06.045Z,3.49
2024-03-11T11:07:32.660Z,3.42
2024-03-11T11:09:59.222Z,3.25
2024-03-11T11:12:25.812Z,3.30
2024-03-11T11:14:52.453Z,3.04
2024-03-11T11:17:19.015Z,3.27
2024-03-11T11:19:45.560Z,3.27
2024-03-11T11:22:12.094Z,3.31
2024-03-11T11:24:38.662Z,3.28
2024-03-11T11:27:05.233Z,3.61
2024-03-11T11:29:31.826Z,4.07
2024-03-11T11:31:58.380Z,4.05
2024-03-11T11:34:24.918Z,3.95
2024-03-11T11:36:51.509Z,4.18
2024-03-11T11:39:18.218Z,3.84
2024-03-11T11:41:44.811Z,3.80
2024-03-11T11:44:11.369Z,4.06
2024-03-11T11:46:37.918Z,3.61
2024-03-11T11:49:04.513Z,3.46
2024-03-11T11:51:31.141Z,3.30
2024-03-11T11:54:07.487Z,2.86
2024-03-11T11:56:37.120Z,2.40
2024-03-11T11:59:03.702Z,2.40
2024-03-11T12:01:30.579Z,2.47
2024-03-11T12:03:57.281Z,2.42
2024-03-11T12:06:24.826Z,2.60
2024-03-11T12:08:51.487Z,2.84
2024-03-11T12:11:18.060Z,3.34
2024-03-11T12:13:44.639Z,3.23
2024-03-11T12:16:11.198Z,3.41
2024-03-11T12:18:37.758Z,3.05
2024-03-11T12:21:04.323Z,3.06
2024-03-11T12:23:30.874Z,3.08
2024-03-11T12:25:57.394Z,3.00
2024-03-11T12:28:23.941Z,2.87
2024-03-11T12:30:50.552Z,2.76
2024-03-11T12:33:17.189Z,2.87
2024-03-11T12:35:43.820Z,2.77
2024-03-11T12:38:10.362Z,2.39
2024-03-11T12:40:36.888Z,2.46
2024-03-11T12:43:03.555Z,2.51
2024-03-11T12:45:30.108Z,2.17
2024-03-11T12:47:56.663Z,1.86
2024-03-11T12:50:23.233Z,1.86
2024-03-11T12:52:49.777Z,1.66
2024-03-11T12:55:16.329Z,1.45
2024-03-11T12:57:42.927Z,1.42
2024-03-11T13:00:09.555Z,1.43
2024-03-11T13:02:36.239Z,1.35
2024-03-11T13:05:02.808Z,1.36
2024-03-11T13:07:29.333Z,1.29
2024-03-11T13:09:55.929Z,1.34
2024-03-11T13:12:22.572Z,1.25
2024-03-11T13:14:49.318Z,1.40
2024-03-11T13:17:15.911Z,1.37
2024-03-11T13:19:42.445Z,1.22
2024-03-11T13:22:08.992Z,1.30
2024-03-11T13:24:35.563Z,1.49
2024-03-11T13:27:02.175Z,1.62
2024-03-11T13:29:28.706Z,2.15
2024-03-11T13:31:55.423Z,2.25
2024-03-11T13:34:22.024Z,2.23
2024-03-11T13:36:49.027Z,2.46
2024-03-11T13:39:15.605Z,2.48
2024-03-11T13:41:42.155Z,2.56
2024-03-11T13:44:08.686Z,2.45
2024-03-11T13:46:35.204Z,2.59
2024-03-11T13:49:01.814Z,2.25
2024-03-11T13:51:28.432Z,1.71
2024-03-11T13:53:55.042Z,1.39
2024-03-11T13:56:21.590Z,1.25
2024-03-11T13:58:48.156Z,1.51
2024-03-11T14:01:14.798Z,0.84
2024-03-11T14:03:41.428Z,0.50
2024-03-11T14:06:08.299Z,1.03
2024-03-11T14:08:34.918Z,0.68
2024-03-11T14:11:01.544Z,0.67
2024-03-11T14:13:28.109Z,0.44
2024-03-11T14:15:54.735Z,0.57
2024-03-11T14:18:21.344Z,0.66
2024-03-11T14:20:47.995Z,0.64
2024-03-11T14:23:14.581Z,0.52
2024-03-11T14:25:41.124Z,0.64
2024-03-11T14:28:08.066Z,0.70
2024-03-11T14:30:37.865Z,0.69
2024-03-11T14:33:06.388Z,0.66
2024-03-11T14:35:33.041Z,0.54
2024-03-11T14:38:00.834Z,0.49
2024-03-11T14:40:27.702Z,0.39
2024-03-11T14:42:54.303Z,0.42
2024-03-11T14:45:21.010Z,0.54
2024-03-11T14:47:47.580Z,0.44
2024-03-11T14:50:14.290Z,0.51
2024-03-11T14:52:40.833Z,1.01
2024-03-11T14:55:07.441Z,0.59
2024-03-11T14:57:34.040Z,0.66
2024-03-11T15:00:00.634Z,0.85
2024-03-11T15:02:27.182Z,0.53
2024-03-11T15:04:53.719Z,0.60
2024-03-11T15:07:20.277Z,0.56
2024-03-11T15:09:46.900Z,0.55
2024-03-11T15:12:13.524Z,0.65
2024-03-11T15:14:40.140Z,0.54
2024-03-11T15:17:06.696Z,0.55
2024-03-11T15:19:33.241Z,1.27
2024-03-11T15:21:59.932Z,1.23
2024-03-11T15:24:26.567Z,1.48
2024-03-11T15:26:53.234Z,1.37
2024-03-11T15:29:19.866Z,1.48
2024-03-11T15:31:46.495Z,1.20
2024-03-11T15:34:13.081Z,2.14
2024-03-11T15:36:39.725Z,0.96
2024-03-11T15:39:06.455Z,0.96
2024-03-11T15:41:33.002Z,0.80
2024-03-11T15:43:59.606Z,0.88
2024-03-11T15:46:26.123Z,0.82
2024-03-11T15:48:52.685Z,0.77
2024-03-11T15:51:19.284Z,0.66
2024-03-11T15:53:45.996Z,0.57
2024-03-11T15:56:12.548Z,0.47
2024-03-11T15:58:39.101Z,0.55
2024-03-11T16:01:05.766Z,0.71
2024-03-11T16:03:32.486Z,0.76
2024-03-11T16:05:59.106Z,0.69
2024-03-11T16:08:25.674Z,0.81
2024-03-11T16:10:52.327Z,0.68
2024-03-11T16:13:18.987Z,0.91
2024-03-11T16:15:45.575Z,0.75
2024-03-11T16:18:12.179Z,0.64
2024-03-11T16:20:38.746Z,0.77
2024-03-11T16:23:05.331Z,0.76
2024-03-11T16:25:31.870Z,0.82
2024-03-11T16:27:58.431Z,0.70
2024-03-11T16:30:24.998Z,0.87
2024-03-11T16:32:51.574Z,0.83
2024-03-11T16:35:18.107Z,0.95
2024-03-11T16:37:44.674Z,0.98
2024-03-11T16:40:11.383Z,1.13
2024-03-11T16:42:37.988Z,1.42
2024-03-11T16:45:04.529Z,1.10
2024-03-11T16:47:31.089Z,0.86
2024-03-11T16:49:57.634Z,0.85
2024-03-11T16:52:24.170Z,0.85
2024-03-11T16:54:50.825Z,1.04
2024-03-11T16:57:17.584Z,1.25
2024-03-11T16:59:44.236Z,1.65
2024-03-11T17:02:10.780Z,1.82
2024-03-11T17:04:37.305Z,2.06
2024-03-11T17:07:03.953Z,1.52
2024-03-11T17:09:30.580Z,1.07
2024-03-11T17:11:57.204Z,1.11
2024-03-11T17:14:23.784Z,1.24
2024-03-11T17:16:50.360Z,0.96
2024-03-11T17:19:16.888Z,1.22
2024-03-11T17:21:43.482Z,1.09
2024-03-11T17:24:10.024Z,1.25
2024-03-11T17:26:36.645Z,1.05
2024-03-11T17:29:03.294Z,1.18
2024-03-11T17:31:29.826Z,1.42
2024-03-11T17:33:59.205Z,1.08
2024-03-11T17:36:27.715Z,1.48
2024-03-11T17:38:54.284Z,1.64
2024-03-11T17:41:20.840Z,1.76
2024-03-11T17:43:47.377Z,1.39
2024-03-11T17:46:14.025Z,1.31
2024-03-11T17:48:40.650Z,1.61
2024-03-11T17:51:07.513Z,1.74
2024-03-11T17:53:34.179Z,2.00
2024-03-11T17:56:00.699Z,2.56
2024-03-11T17:58:27.231Z,1.69
2024-03-11T18:00:54.329Z,1.72
2024-03-11T18:03:21.411Z,35.14
2024-03-11T18:05:48.131Z,64.96
2024-03-11T18:08:14.687Z,26.87
2024-03-11T18:10:41.539Z,6.89
2024-03-11T18:13:08.316Z,12.04
2024-03-11T18:15:34.911Z,2.74
2024-03-11T18:18:01.557Z,1.87
2024-03-11T18:20:28.319Z,1.84
2024-03-11T18:22:54.943Z,5.51
2024-03-11T18:25:21.570Z,2.82
2024-03-11T18:27:48.173Z,2.36
2024-03-11T18:30:14.723Z,2.01
2024-03-11T18:32:41.342Z,2.18
2024-03-11T18:35:08.024Z,2.44
2024-03-11T18:37:34.598Z,2.54
2024-03-11T18:40:01.242Z,2.49
2024-03-11T18:42:27.953Z,2.36
2024-03-11T18:44:54.542Z,2.21
2024-03-11T18:47:21.120Z,2.23
2024-03-11T18:49:47.781Z,2.04
2024-03-11T18:52:14.342Z,2.10
2024-03-11T18:54:40.905Z,2.06
2024-03-11T18:57:07.480Z,2.02
2024-03-11T18:59:34.027Z,1.87
2024-03-11T19:02:00.708Z,2.19
2024-03-11T19:04:27.290Z,2.70
2024-03-11T19:06:53.848Z,2.32
2024-03-11T19:09:20.425Z,2.30
2024-03-11T19:11:46.997Z,2.25
2024-03-11T19:14:13.547Z,2.02
2024-03-11T19:16:40.123Z,1.98
2024-03-11T19:19:06.739Z,2.41
2024-03-11T19:21:33.352Z,2.09
2024-03-11T19:23:59.924Z,2.17
2024-03-11T19:26:26.479Z,2.30
2024-03-11T19:28:53.012Z,2.38
2024-03-11T19:31:19.576Z,2.06
2024-03-11T19:33:46.150Z,2.18
2024-03-11T19:36:16.377Z,2.17
2024-03-11T19:38:44.444Z,2.27
2024-03-11T19:41:11.212Z,2.31
2024-03-11T19:43:37.963Z,2.54
2024-03-11T19:46:04.565Z,3.93
2024-03-11T19:48:31.210Z,2.62
2024-03-11T19:50:57.800Z,2.50
2024-03-11T19:53:24.339Z,2.40
2024-03-11T19:55:50.898Z,2.18
2024-03-11T19:58:17.422Z,2.16
2024-03-11T20:00:44.057Z,2.75
2024-03-11T20:03:10.653Z,2.48
2024-03-11T20:05:37.184Z,2.43
2024-03-11T20:08:03.728Z,2.12
2024-03-11T20:10:30.357Z,2.05
2024-03-11T20:12:57.027Z,2.20
2024-03-11T20:15:23.675Z,2.27
2024-03-11T20:17:50.308Z,1.87
2024-03-11T20:20:16.917Z,2.14
2024-03-11T20:22:43.502Z,2.22
2024-03-11T20:25:10.318Z,2.56
2024-03-11T20:27:36.909Z,2.28
2024-03-11T20:30:03.443Z,2.23
2024-03-11T20:32:29.977Z,2.22
2024-03-11T20:34:56.504Z,2.18
2024-03-11T20:37:23.085Z,2.10
2024-03-11T20:39:49.692Z,2.05
2024-03-11T20:42:16.249Z,2.13
2024-03-11T20:44:42.831Z,2.22
2024-03-11T20:47:09.384Z,2.26
2024-03-11T20:49:35.938Z,2.72
2024-03-11T20:52:02.565Z,2.25
2024-03-11T20:54:29.142Z,2.52
2024-03-11T20:56:55.665Z,2.45
2024-03-11T20:59:22.186Z,2.44
2024-03-11T21:01:48.826Z,2.78
2024-03-11T21:04:15.391Z,2.54
2024-03-11T21:06:41.917Z,2.34
2024-03-11T21:09:08.474Z,2.72
2024-03-11T21:11:35.067Z,2.75
2024-03-11T21:14:01.717Z,2.78
2024-03-11T21:16:28.301Z,2.93
2024-03-11T21:18:54.850Z,2.82
2024-03-11T21:21:21.914Z,3.16
2024-03-11T21:23:48.781Z,3.14
2024-03-11T21:26:15.344Z,3.35
2024-03-11T21:28:41.890Z,3.89
2024-03-11T21:31:08.523Z,3.83
2024-03-11T21:33:35.231Z,4.05
2024-03-11T21:36:01.799Z,3.80
2024-03-11T21:38:30.832Z,3.12
2024-03-11T21:40:59.941Z,3.09
2024-03-11T21:43:26.510Z,3.44
2024-03-11T21:45:53.186Z,3.33
2024-03-11T21:48:20.231Z,3.45
2024-03-11T21:50:47.074Z,3.64
2024-03-11T21:53:13.751Z,3.38
2024-03-11T21:55:40.283Z,3.41
2024-03-11T21:58:06.913Z,3.33
2024-03-11T22:00:33.513Z,3.61
2024-03-11T22:03:00.035Z,3.51
2024-03-11T22:05:26.615Z,3.29
2024-03-11T22:07:53.219Z,3.78
2024-03-11T22:10:19.940Z,3.60
2024-03-11T22:12:46.680Z,3.84
2024-03-11T22:15:13.474Z,4.11
2024-03-11T22:17:40.088Z,4.14
2024-03-11T22:20:06.705Z,4.04
2024-03-11T22:22:33.236Z,4.07
2024-03-11T22:24:59.869Z,4.16
2024-03-11T22:27:26.537Z,4.14
2024-03-11T22:29:53.106Z,4.33
2024-03-11T22:32:19.653Z,4.64
2024-03-11T22:34:46.198Z,4.35
2024-03-11T22:37:12.807Z,4.27
2024-03-11T22:39:39.474Z,4.15
2024-03-11T22:42:06.069Z,4.76
2024-03-11T22:44:32.652Z,4.93
2024-03-11T22:46:59.289Z,5.64
2024-03-11T22:49:25.948Z,5.39
2024-03-11T22:51:52.535Z,5.04
2024-03-11T22:54:19.100Z,4.98
2024-03-11T22:56:45.667Z,5.02
2024-03-11T22:59:12.224Z,4.70
2024-03-11T23:01:38.790Z,4.51
2024-03-11T23:04:06.064Z,4.57
2024-03-11T23:06:32.924Z,4.75
2024-03-11T23:08:59.522Z,5.08
2024-03-11T23:11:26.176Z,4.75
2024-03-11T23:13:52.743Z,4.78
2024-03-11T23:16:19.475Z,4.78
2024-03-11T23:18:46.149Z,4.78
2024-03-11T23:21:12.733Z,4.82
2024-03-11T23:23:39.344Z,4.66
2024-03-11T23:26:08.382Z,4.80
2024-03-11T23:28:35.299Z,4.64
2024-03-11T23:31:02.001Z,4.96
2024-03-11T23:33:28.662Z,5.06
2024-03-11T23:35:55.267Z,4.87
2024-03-11T23:38:21.833Z,4.75
2024-03-11T23:40:48.388Z,5.10
2024-03-11T23:43:14.959Z,5.28
2024-03-11T23:45:41.529Z,4.97
2024-03-11T23:48:08.241Z,5.17
2024-03-11T23:50:34.809Z,4.91
2024-03-11T23:53:01.359Z,5.06
2024-03-11T23:55:27.987Z,5.00
2024-03-11T23:57:54.593Z,5.09
